createdAt,value
2022-07-27T00:00:57.113Z,21.49
2022-07-27T00:03:24.130Z,21.52
2022-07-27T00:05:51.442Z,21.51
2022-07-27T00:08:20.757Z,21.53
2022-07-27T00:10:47.788Z,21.55
2022-07-27T00:13:15.065Z,21.54
2022-07-27T00:15:42.042Z,21.58
2022-07-27T00:18:09.278Z,21.62
2022-07-27T00:20:36.759Z,21.65
2022-07-27T00:23:03.783Z,21.67
2022-07-27T00:25:30.689Z,21.66
2022-07-27T00:27:58.006Z,21.70
2022-07-27T00:30:25.552Z,21.74
2022-07-27T00:32:52.945Z,21.70
2022-07-27T00:35:20.421Z,21.70
2022-07-27T00:37:47.515Z,21.71
2022-07-27T00:40:15.204Z,21.73
2022-07-27T00:42:42.517Z,21.71
2022-07-27T00:45:09.863Z,21.69
2022-07-27T00:47:36.889Z,21.67
2022-07-27T00:50:04.976Z,21.65
2022-07-27T00:52:32.010Z,21.66
2022-07-27T00:54:59.712Z,21.67
2022-07-27T00:57:30.865Z,21.68
2022-07-27T00:59:57.898Z,21.70
2022-07-27T01:02:26.406Z,21.72
2022-07-27T01:04:57.063Z,21.74
2022-07-27T01:07:25.318Z,21.75
2022-07-27T01:09:58.404Z,21.76
2022-07-27T01:12:28.421Z,21.78
2022-07-27T01:14:58.064Z,21.81
2022-07-27T01:17:26.589Z,21.76
2022-07-27T01:19:54.205Z,21.73
2022-07-27T01:22:21.225Z,21.80
2022-07-27T01:24:50.353Z,21.84
2022-07-27T01:27:17.706Z,21.86
2022-07-27T01:29:44.699Z,21.79
2022-07-27T01:32:11.819Z,21.73
2022-07-27T01:34:39.045Z,21.66
2022-07-27T01:37:06.361Z,21.63
2022-07-27T01:39:34.686Z,21.52
2022-07-27T01:42:05.308Z,21.35
2022-07-27T01:44:33.586Z,21.22
2022-07-27T01:47:00.656Z,21.12
2022-07-27T01:49:28.405Z,21.07
2022-07-27T01:51:55.368Z,20.90
2022-07-27T01:54:23.774Z,20.78
2022-07-27T01:56:52.222Z,20.71
2022-07-27T01:59:19.174Z,20.64
2022-07-27T02:01:46.306Z,20.58
2022-07-27T02:04:13.526Z,20.53
2022-07-27T02:06:40.505Z,20.43
2022-07-27T02:09:07.738Z,20.40
2022-07-27T02:11:53.866Z,20.44
2022-07-27T02:14:21.166Z,20.47
2022-07-27T02:16:50.057Z,20.49
2022-07-27T02:19:18.245Z,20.45
2022-07-27T02:21:45.607Z,20.48
2022-07-27T02:24:13.095Z,20.54
2022-07-27T02:26:40.318Z,20.54
2022-07-27T02:29:07.757Z,20.55
2022-07-27T02:31:35.423Z,20.52
2022-07-27T02:34:02.601Z,20.43
2022-07-27T02:36:29.802Z,20.42
2022-07-27T02:38:58.231Z,20.41
2022-07-27T02:41:25.741Z,20.39
2022-07-27T02:43:52.659Z,20.38
2022-07-27T02:46:20.157Z,20.33
2022-07-27T02:48:47.244Z,20.28
2022-07-27T02:51:15.334Z,20.23
2022-07-27T02:53:42.713Z,20.28
2022-07-27T02:56:09.739Z,20.31
2022-07-27T02:58:36.974Z,20.27
2022-07-27T03:01:06.911Z,20.16
2022-07-27T03:03:36.720Z,20.07
2022-07-27T03:06:06.672Z,20.03
2022-07-27T03:08:33.881Z,20.09
2022-07-27T03:11:00.940Z,20.11
2022-07-27T03:13:29.071Z,20.06
2022-07-27T03:15:56.659Z,19.95
2022-07-27T03:18:24.999Z,19.91
2022-07-27T03:20:52.252Z,19.93
2022-07-27T03:23:19.711Z,19.91
2022-07-27T03:25:46.891Z,19.88
2022-07-27T03:28:14.165Z,19.87
2022-07-27T03:30:41.267Z,19.86
2022-07-27T03:33:08.483Z,19.85
2022-07-27T03:35:35.998Z,19.83
2022-07-27T03:38:03.527Z,19.80
2022-07-27T03:40:32.967Z,19.70
2022-07-27T03:43:00.872Z,19.71
2022-07-27T03:45:28.439Z,19.74
2022-07-27T03:47:55.846Z,19.80
2022-07-27T03:50:23.379Z,19.84
2022-07-27T03:52:51.185Z,19.87
2022-07-27T03:55:18.825Z,19.92
2022-07-27T03:57:46.324Z,19.93
2022-07-27T04:00:14.370Z,19.94
2022-07-27T04:02:41.733Z,19.90
2022-07-27T04:05:10.076Z,19.92
2022-07-27T04:07:37.012Z,19.92
2022-07-27T04:10:05.046Z,19.93
2022-07-27T04:12:32.523Z,19.95
2022-07-27T04:14:59.605Z,20.00
2022-07-27T04:17:55.711Z,20.14
2022-07-27T04:20:14.672Z,20.24
2022-07-27T04:22:41.848Z,20.42
2022-07-27T04:25:09.272Z,20.61
2022-07-27T04:27:38.395Z,20.81
2022-07-27T04:30:09.473Z,21.00
2022-07-27T04:32:36.907Z,21.03
2022-07-27T04:35:04.153Z,20.93
2022-07-27T04:37:33.331Z,20.85
2022-07-27T04:40:01.052Z,20.91
2022-07-27T04:42:30.143Z,20.94
2022-07-27T04:44:57.659Z,20.87
2022-07-27T04:47:24.628Z,20.84
2022-07-27T04:49:51.584Z,20.83
2022-07-27T04:52:19.342Z,20.86
2022-07-27T04:54:54.695Z,20.89
2022-07-27T04:57:23.263Z,20.95
2022-07-27T04:59:50.475Z,20.94
2022-07-27T05:02:18.786Z,21.01
2022-07-27T05:04:46.154Z,21.09
2022-07-27T05:07:13.164Z,21.18
2022-07-27T05:09:40.200Z,21.29
2022-07-27T05:12:07.614Z,21.46
2022-07-27T05:14:34.599Z,21.59
2022-07-27T05:17:01.784Z,21.70
2022-07-27T05:19:40.417Z,21.81
2022-07-27T05:22:08.512Z,21.81
2022-07-27T05:24:35.730Z,21.76
2022-07-27T05:27:02.687Z,21.65
2022-07-27T05:29:29.689Z,21.60
2022-07-27T05:31:56.990Z,21.63
2022-07-27T05:34:24.030Z,22.27
2022-07-27T05:36:50.920Z,23.27
2022-07-27T05:39:18.565Z,24.23
2022-07-27T05:41:45.790Z,25.23
2022-07-27T05:44:12.683Z,26.37
2022-07-27T05:46:40.034Z,27.93
2022-07-27T05:49:07.860Z,29.48
2022-07-27T05:51:34.961Z,30.64
2022-07-27T05:54:02.549Z,30.81
2022-07-27T05:56:30.975Z,31.34
2022-07-27T05:58:58.101Z,31.78
2022-07-27T06:01:25.600Z,31.96
2022-07-27T06:03:52.615Z,32.47
2022-07-27T06:06:38.075Z,33.18
2022-07-27T06:09:05.652Z,34.01
2022-07-27T06:11:32.775Z,34.62
2022-07-27T06:13:59.828Z,35.30
2022-07-27T06:16:28.190Z,35.89
2022-07-27T06:18:55.263Z,36.25
2022-07-27T06:21:26.020Z,36.04
2022-07-27T06:23:58.067Z,34.64
2022-07-27T06:26:24.968Z,34.11
2022-07-27T06:28:52.987Z,34.19
2022-07-27T06:31:20.447Z,34.14
2022-07-27T06:33:48.228Z,33.75
2022-07-27T06:36:18.069Z,33.97
2022-07-27T06:38:45.630Z,33.95
2022-07-27T06:41:25.628Z,34.50
2022-07-27T06:43:53.982Z,35.62
2022-07-27T06:46:44.531Z,35.49
2022-07-27T06:49:13.638Z,36.20
2022-07-27T06:51:44.093Z,36.22
2022-07-27T06:54:11.508Z,36.37
2022-07-27T06:56:38.969Z,36.67
2022-07-27T06:59:06.452Z,36.75
2022-07-27T07:01:33.585Z,36.81
2022-07-27T07:04:01.005Z,36.91
2022-07-27T07:06:28.008Z,36.91
2022-07-27T07:08:55.338Z,36.89
2022-07-27T07:11:22.599Z,36.43
2022-07-27T07:13:49.631Z,36.35
2022-07-27T07:16:16.834Z,36.37
2022-07-27T07:19:08.494Z,36.33
2022-07-27T07:21:37.030Z,36.57
2022-07-27T07:24:04.346Z,36.72
2022-07-27T07:26:32.937Z,36.76
2022-07-27T07:29:00.783Z,36.75
2022-07-27T07:31:27.952Z,36.60
2022-07-27T07:33:54.989Z,36.30
2022-07-27T07:36:22.547Z,36.15
2022-07-27T07:38:49.569Z,36.25
2022-07-27T07:41:16.532Z,36.18
2022-07-27T07:43:43.803Z,36.02
2022-07-27T07:46:10.929Z,35.78
2022-07-27T07:48:39.645Z,35.71
2022-07-27T07:51:07.092Z,35.60
2022-07-27T07:53:39.180Z,35.72
2022-07-27T07:56:08.962Z,35.53
2022-07-27T07:58:36.333Z,35.42
2022-07-27T08:01:03.276Z,35.49
2022-07-27T08:03:30.643Z,35.43
2022-07-27T08:05:57.810Z,35.24
2022-07-27T08:08:25.015Z,35.14
2022-07-27T08:10:52.373Z,35.09
2022-07-27T08:13:22.182Z,34.97
2022-07-27T08:15:50.556Z,34.87
2022-07-27T08:18:18.056Z,34.71
2022-07-27T08:20:45.125Z,34.75
2022-07-27T08:23:13.442Z,34.71
2022-07-27T08:25:40.870Z,34.54
2022-07-27T08:28:12.563Z,33.40
2022-07-27T08:30:39.689Z,34.10
2022-07-27T08:33:07.102Z,34.09
2022-07-27T08:35:35.623Z,34.13
2022-07-27T08:38:05.815Z,34.09
2022-07-27T08:40:40.322Z,33.81
2022-07-27T08:43:10.044Z,33.42
2022-07-27T08:45:38.593Z,33.26
2022-07-27T08:48:07.195Z,33.13
2022-07-27T08:50:35.447Z,33.36
2022-07-27T08:53:11.902Z,33.39
2022-07-27T08:55:41.788Z,33.50
2022-07-27T08:58:10.758Z,33.64
2022-07-27T09:00:45.184Z,33.62
2022-07-27T09:03:18.841Z,33.73
2022-07-27T09:05:54.169Z,33.68
2022-07-27T09:08:24.780Z,33.72
2022-07-27T09:10:56.381Z,33.37
2022-07-27T09:13:32.365Z,33.24
2022-07-27T09:16:22.467Z,33.08
2022-07-27T09:19:00.829Z,32.64
2022-07-27T09:21:28.606Z,32.17
2022-07-27T09:24:43.917Z,31.73
2022-07-27T09:27:05.834Z,31.33
2022-07-27T09:29:37.334Z,31.06
2022-07-27T09:32:16.104Z,30.81
2022-07-27T09:34:44.292Z,30.91
2022-07-27T09:37:11.316Z,31.04
2022-07-27T09:39:39.675Z,31.08
2022-07-27T09:42:38.262Z,31.13
2022-07-27T09:45:03.471Z,31.04
2022-07-27T09:47:32.947Z,30.84
2022-07-27T09:50:19.847Z,30.53
2022-07-27T09:52:47.881Z,30.67
2022-07-27T09:55:21.404Z,30.64
2022-07-27T09:57:57.290Z,30.58
2022-07-27T10:00:26.060Z,30.63
2022-07-27T10:02:58.157Z,30.69
2022-07-27T10:05:25.123Z,30.70
2022-07-27T10:07:54.084Z,30.67
2022-07-27T10:10:23.221Z,30.66
2022-07-27T10:12:54.927Z,30.59
2022-07-27T10:15:24.850Z,30.62
2022-07-27T10:18:06.918Z,30.35
2022-07-27T10:20:39.633Z,30.15
2022-07-27T10:23:07.582Z,30.20
2022-07-27T10:25:37.939Z,30.20
2022-07-27T10:28:17.728Z,30.05
2022-07-27T10:30:49.341Z,30.26
2022-07-27T10:33:45.019Z,30.33
2022-07-27T10:36:32.745Z,30.34
2022-07-27T10:39:01.932Z,30.32
2022-07-27T10:41:31.937Z,30.03
2022-07-27T10:44:22.732Z,29.75
2022-07-27T10:46:53.650Z,29.81
2022-07-27T10:49:28.159Z,29.92
2022-07-27T10:51:58.163Z,30.01
2022-07-27T10:54:29.455Z,29.98
2022-07-27T10:57:04.812Z,29.90
2022-07-27T11:00:07.559Z,29.82
2022-07-27T11:02:42.572Z,29.72
2022-07-27T11:05:37.873Z,29.80
2022-07-27T11:10:48.977Z,29.98
2022-07-27T11:13:20.593Z,29.91
2022-07-27T11:16:09.685Z,29.92
2022-07-27T11:19:04.371Z,29.92
2022-07-27T11:21:39.110Z,30.07
2022-07-27T11:24:17.769Z,30.10
2022-07-27T11:26:50.250Z,30.19
2022-07-27T11:29:20.829Z,30.19
2022-07-27T11:31:56.623Z,30.22
2022-07-27T11:34:34.605Z,30.15
2022-07-27T11:37:19.227Z,30.14
2022-07-27T11:40:13.976Z,29.95
2022-07-27T11:42:44.966Z,29.94
2022-07-27T11:45:12.772Z,30.19
2022-07-27T11:47:39.802Z,30.42
2022-07-27T11:50:12.529Z,30.45
2022-07-27T11:52:40.087Z,30.64
2022-07-27T11:55:07.985Z,30.82
2022-07-27T11:57:37.507Z,31.11
2022-07-27T12:00:06.773Z,31.42
2022-07-27T12:02:54.906Z,31.76
2022-07-27T12:05:22.259Z,31.98
2022-07-27T12:07:49.414Z,32.12
2022-07-27T12:10:17.847Z,32.42
2022-07-27T12:12:50.425Z,32.51
2022-07-27T12:18:06.304Z,32.26
2022-07-27T12:20:35.917Z,32.32
2022-07-27T12:23:08.168Z,32.15
2022-07-27T12:25:36.824Z,32.07
2022-07-27T12:28:08.864Z,31.94
2022-07-27T12:30:39.785Z,31.96
2022-07-27T12:33:24.441Z,31.86
2022-07-27T12:35:52.304Z,32.04
2022-07-27T12:38:19.511Z,32.12
2022-07-27T12:40:56.799Z,32.09
2022-07-27T12:43:27.441Z,32.04
2022-07-27T12:45:55.490Z,31.79
2022-07-27T12:48:25.629Z,31.58
2022-07-27T12:51:04.977Z,31.47
2022-07-27T12:53:33.336Z,31.48
2022-07-27T12:56:07.131Z,31.28
2022-07-27T12:58:34.839Z,31.11
2022-07-27T13:01:03.361Z,30.89
2022-07-27T13:03:30.451Z,30.71
2022-07-27T13:05:57.758Z,30.45
2022-07-27T13:08:25.020Z,30.34
2022-07-27T13:11:08.646Z,30.11
2022-07-27T13:13:39.750Z,29.88
2022-07-27T13:16:06.957Z,29.82
2022-07-27T13:18:34.022Z,29.71
2022-07-27T13:21:02.126Z,29.54
2022-07-27T13:23:29.786Z,29.38
2022-07-27T13:25:56.850Z,29.24
2022-07-27T13:28:24.317Z,29.11
2022-07-27T13:30:51.546Z,29.02
2022-07-27T13:33:18.570Z,28.96
2022-07-27T13:36:00.771Z,28.90
2022-07-27T13:38:33.979Z,28.73
2022-07-27T13:41:01.276Z,28.66
2022-07-27T13:43:29.768Z,28.57
2022-07-27T13:45:56.998Z,28.57
2022-07-27T13:48:24.691Z,28.58
2022-07-27T13:50:51.658Z,28.46
2022-07-27T13:53:19.201Z,28.44
2022-07-27T13:55:46.538Z,28.43
2022-07-27T13:58:13.773Z,28.45
2022-07-27T14:00:41.149Z,28.40
2022-07-27T14:03:11.283Z,28.42
2022-07-27T14:05:43.062Z,28.37
2022-07-27T14:08:25.281Z,28.28
2022-07-27T14:10:53.153Z,28.19
2022-07-27T14:13:24.994Z,28.10
2022-07-27T14:15:54.156Z,27.98
2022-07-27T14:18:29.482Z,27.91
2022-07-27T14:20:59.156Z,27.88
2022-07-27T14:23:29.386Z,27.87
2022-07-27T14:25:59.101Z,27.89
2022-07-27T14:28:28.781Z,27.89
2022-07-27T14:30:57.501Z,27.88
2022-07-27T14:33:26.584Z,27.84
2022-07-27T14:36:09.000Z,27.81
2022-07-27T14:38:44.697Z,27.77
2022-07-27T14:41:13.233Z,27.66
2022-07-27T14:43:42.077Z,27.58
2022-07-27T14:46:11.233Z,27.47
2022-07-27T14:49:05.244Z,27.33
2022-07-27T14:51:28.899Z,27.19
2022-07-27T14:53:56.942Z,27.06
2022-07-27T14:56:24.503Z,26.96
2022-07-27T14:58:53.156Z,26.84
2022-07-27T15:01:23.650Z,26.71
2022-07-27T15:03:51.213Z,26.60
2022-07-27T15:06:18.684Z,26.49
2022-07-27T15:08:52.098Z,26.43
2022-07-27T15:11:21.045Z,26.38
2022-07-27T15:13:48.641Z,26.27
2022-07-27T15:16:26.536Z,26.08
2022-07-27T15:19:18.699Z,26.03
2022-07-27T15:21:49.699Z,25.90
2022-07-27T15:24:16.914Z,25.86
2022-07-27T15:26:44.848Z,25.83
2022-07-27T15:29:14.485Z,25.88
2022-07-27T15:31:43.314Z,25.92
2022-07-27T15:34:11.657Z,25.91
2022-07-27T15:36:47.192Z,25.99
2022-07-27T15:39:23.310Z,26.05
2022-07-27T15:41:52.332Z,26.10
2022-07-27T15:44:21.570Z,26.11
2022-07-27T15:46:49.123Z,26.19
2022-07-27T15:49:27.728Z,26.25
2022-07-27T15:51:55.967Z,26.23
2022-07-27T15:54:24.349Z,26.17
2022-07-27T15:56:51.804Z,26.21
2022-07-27T15:59:19.731Z,26.31
2022-07-27T16:01:49.128Z,26.37
2022-07-27T16:04:17.178Z,26.35
2022-07-27T16:06:44.796Z,26.23
2022-07-27T16:09:16.393Z,26.18
2022-07-27T16:11:45.992Z,26.07
2022-07-27T16:14:18.380Z,26.00
2022-07-27T16:16:48.230Z,26.01
2022-07-27T16:19:16.263Z,26.11
2022-07-27T16:21:54.261Z,26.13
2022-07-27T16:24:25.360Z,26.12
2022-07-27T16:26:52.723Z,26.09
2022-07-27T16:29:20.224Z,26.04
2022-07-27T16:31:49.820Z,25.93
2022-07-27T16:34:17.083Z,25.83
2022-07-27T16:36:45.668Z,25.75
2022-07-27T16:39:16.376Z,25.70
2022-07-27T16:41:44.805Z,25.66
2022-07-27T16:44:15.995Z,25.67
2022-07-27T16:46:44.926Z,25.65
2022-07-27T16:49:12.740Z,25.64
2022-07-27T16:51:41.887Z,25.59
2022-07-27T16:54:10.102Z,25.55
2022-07-27T16:56:38.066Z,25.54
2022-07-27T16:59:05.532Z,25.47
2022-07-27T17:01:33.484Z,25.40
2022-07-27T17:04:02.043Z,25.33
2022-07-27T17:06:32.144Z,25.18
2022-07-27T17:09:00.449Z,25.09
2022-07-27T17:11:27.942Z,25.09
2022-07-27T17:13:58.950Z,25.08
2022-07-27T17:16:28.999Z,25.08
2022-07-27T17:18:56.237Z,25.09
2022-07-27T17:21:23.448Z,25.06
2022-07-27T17:23:55.074Z,25.06
2022-07-27T17:26:25.179Z,25.04
2022-07-27T17:28:54.527Z,25.04
2022-07-27T17:31:22.261Z,25.00
2022-07-27T17:33:52.242Z,24.99
2022-07-27T17:36:23.984Z,24.92
2022-07-27T17:38:54.223Z,24.86
2022-07-27T17:41:25.411Z,24.84
2022-07-27T17:43:55.344Z,24.77
2022-07-27T17:46:25.349Z,24.70
2022-07-27T17:48:54.774Z,24.65
2022-07-27T17:51:25.497Z,24.69
2022-07-27T17:53:53.422Z,24.67
2022-07-27T17:56:21.853Z,24.65
2022-07-27T17:58:50.774Z,24.64
2022-07-27T18:01:17.873Z,24.65
2022-07-27T18:04:05.684Z,24.58
2022-07-27T18:06:32.863Z,24.47
2022-07-27T18:08:59.963Z,24.40
2022-07-27T18:11:27.944Z,24.42
2022-07-27T18:13:57.349Z,24.45
2022-07-27T18:16:27.193Z,24.50
2022-07-27T18:19:01.155Z,24.57
2022-07-27T18:21:28.392Z,24.56
2022-07-27T18:23:55.490Z,24.61
2022-07-27T18:26:23.227Z,24.62
2022-07-27T18:28:52.993Z,24.62
2022-07-27T18:31:20.531Z,24.60
2022-07-27T18:33:50.395Z,24.59
2022-07-27T18:36:20.075Z,24.56
2022-07-27T18:38:49.701Z,24.57
2022-07-27T18:41:19.190Z,24.55
2022-07-27T18:43:56.090Z,24.52
2022-07-27T18:46:24.029Z,24.46
2022-07-27T18:48:51.445Z,24.44
2022-07-27T18:51:18.420Z,24.45
2022-07-27T18:53:46.254Z,24.45
2022-07-27T18:56:13.233Z,24.44
2022-07-27T18:58:41.081Z,24.42
2022-07-27T19:01:09.793Z,24.38
2022-07-27T19:03:37.410Z,24.29
2022-07-27T19:06:08.527Z,24.26
2022-07-27T19:08:37.487Z,24.28
2022-07-27T19:11:04.413Z,24.24
2022-07-27T19:13:31.638Z,24.27
2022-07-27T19:16:00.576Z,24.26
2022-07-27T19:18:27.773Z,24.24
2022-07-27T19:20:55.602Z,24.23
2022-07-27T19:23:22.584Z,24.26
2022-07-27T19:25:49.599Z,24.30
2022-07-27T19:28:19.608Z,24.33
2022-07-27T19:30:47.333Z,24.38
2022-07-27T19:33:14.984Z,24.42
2022-07-27T19:35:42.256Z,24.40
2022-07-27T19:38:09.227Z,24.35
2022-07-27T19:40:45.839Z,24.25
2022-07-27T19:43:17.680Z,24.24
2022-07-27T19:45:44.689Z,24.18
2022-07-27T19:48:11.948Z,24.09
2022-07-27T19:50:39.389Z,23.99
2022-07-27T19:53:06.348Z,23.97
2022-07-27T19:55:33.403Z,23.95
2022-07-27T19:58:01.098Z,23.98
2022-07-27T20:00:28.098Z,23.90
2022-07-27T20:02:55.114Z,23.83
2022-07-27T20:05:22.381Z,23.77
2022-07-27T20:07:49.281Z,23.76
2022-07-27T20:10:17.378Z,23.77
2022-07-27T20:12:44.602Z,23.81
2022-07-27T20:15:11.706Z,23.78
2022-07-27T20:17:40.875Z,23.73
2022-07-27T20:20:09.939Z,23.67
2022-07-27T20:22:39.330Z,23.68
2022-07-27T20:25:08.327Z,23.63
2022-07-27T20:27:35.799Z,23.63
2022-07-27T20:30:03.990Z,23.61
2022-07-27T20:32:31.334Z,23.63
2022-07-27T20:34:58.614Z,23.65
2022-07-27T20:37:26.086Z,23.71
2022-07-27T20:39:53.203Z,23.75
2022-07-27T20:42:20.430Z,23.77
2022-07-27T20:44:47.604Z,23.78
2022-07-27T20:47:14.742Z,23.75
2022-07-27T20:49:41.917Z,23.72
2022-07-27T20:52:08.836Z,23.70
2022-07-27T20:54:36.046Z,23.68
2022-07-27T20:57:03.262Z,23.68
2022-07-27T20:59:31.156Z,23.63
2022-07-27T21:01:58.105Z,23.59
2022-07-27T21:04:25.386Z,23.54
2022-07-27T21:06:54.231Z,23.49
2022-07-27T21:09:21.962Z,23.42
2022-07-27T21:11:49.880Z,23.33
2022-07-27T21:14:19.145Z,23.26
2022-07-27T21:16:46.184Z,23.22
2022-07-27T21:19:13.785Z,23.16
2022-07-27T21:21:41.510Z,23.09
2022-07-27T21:24:18.659Z,23.05
2022-07-27T21:26:57.129Z,22.92
2022-07-27T21:29:27.028Z,22.89
2022-07-27T21:31:59.194Z,22.83
2022-07-27T21:34:26.185Z,22.76
2022-07-27T21:36:53.761Z,22.70
2022-07-27T21:39:21.127Z,22.63
2022-07-27T21:41:48.291Z,22.56
2022-07-27T21:44:15.670Z,22.52
2022-07-27T21:46:43.533Z,22.45
2022-07-27T21:49:13.333Z,22.41
2022-07-27T21:51:40.627Z,22.38
2022-07-27T21:54:07.844Z,22.34
2022-07-27T21:56:41.141Z,22.27
2022-07-27T21:59:09.172Z,22.22
2022-07-27T22:01:36.330Z,22.17
2022-07-27T22:04:03.437Z,22.14
2022-07-27T22:06:31.289Z,22.09
2022-07-27T22:08:58.953Z,22.05
2022-07-27T22:11:26.367Z,22.00
2022-07-27T22:13:53.864Z,21.97
2022-07-27T22:16:20.828Z,21.94
2022-07-27T22:18:47.761Z,21.90
2022-07-27T22:21:14.963Z,21.89
2022-07-27T22:23:41.846Z,21.88
2022-07-27T22:26:08.784Z,21.84
2022-07-27T22:28:36.136Z,21.79
2022-07-27T22:31:21.060Z,21.77
2022-07-27T22:33:50.468Z,21.73
2022-07-27T22:36:17.428Z,21.71
2022-07-27T22:38:44.388Z,21.66
2022-07-27T22:41:11.992Z,21.66
2022-07-27T22:43:39.932Z,21.65
2022-07-27T22:46:07.243Z,21.58
2022-07-27T22:48:34.613Z,21.52
2022-07-27T22:51:01.665Z,21.43
2022-07-27T22:53:28.621Z,21.35
2022-07-27T22:55:56.403Z,21.28
2022-07-27T22:58:23.440Z,21.17
2022-07-27T23:00:53.493Z,21.10
2022-07-27T23:03:23.422Z,21.00
2022-07-27T23:05:50.544Z,20.97
2022-07-27T23:08:17.446Z,20.92
2022-07-27T23:10:47.553Z,20.86
2022-07-27T23:13:17.622Z,20.84
2022-07-27T23:15:46.627Z,20.84
2022-07-27T23:18:14.334Z,20.83
2022-07-27T23:20:41.614Z,20.82
2022-07-27T23:23:16.260Z,20.79
2022-07-27T23:25:47.323Z,20.75
2022-07-27T23:28:15.049Z,20.74
2022-07-27T23:30:42.408Z,20.71
2022-07-27T23:33:09.563Z,20.69
2022-07-27T23:35:36.817Z,20.69
2022-07-27T23:38:03.902Z,20.66
2022-07-27T23:40:30.950Z,20.60
2022-07-27T23:42:58.273Z,20.52
2022-07-27T23:45:26.507Z,20.45
2022-07-27T23:47:53.617Z,20.42
2022-07-27T23:50:21.280Z,20.42
2022-07-27T23:52:48.419Z,20.39
2022-07-27T23:55:15.558Z,20.39
2022-07-27T23:57:43.178Z,20.36
